Time;durP1;ratioP1;P1;durP2;ratioP2;P2;SDS_P1;SDS_P2;PMS_P1;PMS_P2;Temp;Humidity;BMP_temperature;BMP_pressure;BME280_temperature;BME280_humidity;BME280_pressure;Samples;Min_cycle;Max_cycle;Signal;HPM_P1;HPM_P2
2020/04/09 00:00:13;;;;;;;8.3;5.8;;;;;;;10.48;57.78809;943.9752;;;;
2020/04/09 00:02:49;;;;;;;8.5;6.2;;;;;;;10.43;58.19336;943.9686;;;;
2020/04/09 00:05:10;;;;;;;8.9;6.3;;;;;;;10.3;58.72363;943.9659;;;;
2020/04/09 00:07:37;;;;;;;7.9;5.9;;;;;;;10.27;58.83301;943.9016;;;;
2020/04/09 00:10:02;;;;;;;9.1;5.8;;;;;;;10.24;59.14941;943.9512;;;;
2020/04/09 00:12:28;;;;;;;9.2;6.3;;;;;;;10.32;58.62402;943.9417;;;;
2020/04/09 00:14:53;;;;;;;8.7;6;;;;;;;10.36;59.06152;943.8428;;;;
2020/04/09 00:17:18;;;;;;;9.1;5.9;;;;;;;10.32;59.13574;943.9241;;;;
2020/04/09 00:19:43;;;;;;;11.2;5.3;;;;;;;10.34;58.96777;943.9277;;;;
2020/04/09 00:22:08;;;;;;;7.2;5.4;;;;;;;10.23;59.20313;943.9406;;;;
2020/04/09 00:24:33;;;;;;;9.7;5.2;;;;;;;10.19;59.37012;943.921;;;;
2020/04/09 00:26:58;;;;;;;7.3;5.2;;;;;;;10.15;59.39941;943.9186;;;;
2020/04/09 00:29:23;;;;;;;9.2;5.5;;;;;;;10.16;59.37598;943.8384;;;;
2020/04/09 00:31:48;;;;;;;6.4;5.5;;;;;;;10.16;59.54688;943.8264;;;;
2020/04/09 00:34:14;;;;;;;8;5.6;;;;;;;10.17;59.7666;943.8076;;;;
2020/04/09 00:36:39;;;;;;;7.6;4.8;;;;;;;10.18;59.43555;943.8491;;;;
2020/04/09 00:39:05;;;;;;;10;4.5;;;;;;;10.16;59.37695;943.8837;;;;
2020/04/09 00:41:30;;;;;;;6.2;4.4;;;;;;;10.12;59.38379;943.8622;;;;
2020/04/09 00:43:55;;;;;;;6.3;4.4;;;;;;;10.04;59.63379;943.8447;;;;
2020/04/09 00:46:20;;;;;;;6.3;4.7;;;;;;;10;59.71973;943.8619;;;;
2020/04/09 00:48:45;;;;;;;13.2;5;;;;;;;9.87;60.12402;943.8084;;;;
2020/04/09 00:51:10;;;;;;;8.2;4.7;;;;;;;9.82;60.02539;943.7541;;;;
2020/04/09 00:53:35;;;;;;;6.9;4.7;;;;;;;9.74;60.28809;943.7607;;;;
2020/04/09 00:56:00;;;;;;;6.3;4.9;;;;;;;9.68;60.42676;943.765;;;;
2020/04/09 00:58:26;;;;;;;6.2;4.5;;;;;;;9.67;60.55078;943.7147;;;;
2020/04/09 01:00:57;;;;;;;8.2;4.9;;;;;;;9.63;60.7168;943.7481;;;;
2020/04/09 01:03:22;;;;;;;5.7;4.9;;;;;;;9.53;60.87402;943.6423;;;;
2020/04/09 01:05:47;;;;;;;6.1;4.8;;;;;;;9.48;61.09375;943.7198;;;;
2020/04/09 01:08:12;;;;;;;5.3;4.4;;;;;;;9.43;61.19141;943.7285;;;;
2020/04/09 01:10:59;;;;;;;7.9;5;;;;;;;9.42;61.26855;943.6741;;;;
2020/04/09 01:13:24;;;;;;;5.8;4.6;;;;;;;9.39;61.29785;943.6858;;;;
2020/04/09 01:15:51;;;;;;;6.5;4.6;;;;;;;9.36;61.55566;943.705;;;;
2020/04/09 01:18:16;;;;;;;5.3;4.7;;;;;;;9.32;61.5166;943.7152;;;;
2020/04/09 01:20:41;;;;;;;7.3;5;;;;;;;9.25;61.97168;943.704;;;;
2020/04/09 01:23:06;;;;;;;6.5;4.6;;;;;;;9.32;61.56055;943.6905;;;;
2020/04/09 01:25:32;;;;;;;7.9;4.8;;;;;;;9.18;61.83691;943.6839;;;;
2020/04/09 01:27:57;;;;;;;5;4.4;;;;;;;9.14;61.84375;943.6409;;;;
2020/04/09 01:30:52;;;;;;;5.7;5;;;;;;;9.05;62.42188;943.6697;;;;
2020/04/09 01:33:17;;;;;;;7.9;4.7;;;;;;;8.94;62.71387;943.647;;;;
2020/04/09 01:35:42;;;;;;;7.7;5;;;;;;;8.81;63.27344;943.697;;;;
2020/04/09 01:38:18;;;;;;;9.7;5;;;;;;;8.79;63.41797;943.704;;;;
2020/04/09 01:40:44;;;;;;;10.3;5.8;;;;;;;8.81;63.94336;943.6553;;;;
2020/04/09 01:43:09;;;;;;;7.1;5.7;;;;;;;8.88;63.97852;943.7145;;;;
2020/04/09 01:45:34;;;;;;;6.6;5.4;;;;;;;8.9;63.85547;943.7183;;;;
2020/04/09 01:47:59;;;;;;;8.7;5.8;;;;;;;8.93;63.61133;943.6381;;;;
2020/04/09 01:50:24;;;;;;;7.9;5.5;;;;;;;8.93;63.58789;943.6761;;;;
2020/04/09 01:52:49;;;;;;;7.5;5.6;;;;;;;8.97;63.32129;943.6931;;;;
2020/04/09 01:55:14;;;;;;;6;5.4;;;;;;;8.95;63.40723;943.6582;;;;
2020/04/09 01:57:40;;;;;;;5.8;5.1;;;;;;;8.93;63.29199;943.5872;;;;
2020/04/09 02:00:05;;;;;;;7;5.2;;;;;;;8.88;63.33008;943.6526;;;;
2020/04/09 02:02:32;;;;;;;6.9;5.2;;;;;;;8.8;63.25;943.6211;;;;
2020/04/09 02:04:58;;;;;;;7.2;5.2;;;;;;;8.72;63.31836;943.6167;;;;
2020/04/09 02:07:23;;;;;;;7.3;5.2;;;;;;;8.64;63.39648;943.5067;;;;
2020/04/09 02:09:48;;;;;;;6.3;5.3;;;;;;;8.56;63.63574;943.5115;;;;
2020/04/09 02:12:14;;;;;;;6.1;5.2;;;;;;;8.5;63.78418;943.4647;;;;
2020/04/09 02:14:39;;;;;;;8.2;5.3;;;;;;;8.46;63.91699;943.5281;;;;
2020/04/09 02:17:04;;;;;;;6.7;5.6;;;;;;;8.47;64.22363;943.5005;;;;
2020/04/09 02:19:29;;;;;;;7.8;5.3;;;;;;;8.49;64.2832;943.5375;;;;
2020/04/09 02:21:55;;;;;;;7.5;5.9;;;;;;;8.47;64.3252;943.5123;;;;
2020/04/09 02:24:20;;;;;;;8.8;6.1;;;;;;;8.48;64.39648;943.5357;;;;
2020/04/09 02:26:45;;;;;;;8.4;5.8;;;;;;;8.48;64.37207;943.538;;;;
2020/04/09 02:29:10;;;;;;;7.6;5.7;;;;;;;8.45;64.24316;943.5364;;;;
2020/04/09 02:31:35;;;;;;;9.2;6.1;;;;;;;8.37;64.53809;943.5555;;;;
2020/04/09 02:34:01;;;;;;;8.9;5.6;;;;;;;8.19;65.06836;943.5678;;;;
2020/04/09 02:36:26;;;;;;;10.2;5.4;;;;;;;8.19;64.97656;943.5494;;;;
2020/04/09 02:38:52;;;;;;;7.8;5.4;;;;;;;8.2;64.84277;943.5641;;;;
2020/04/09 02:41:17;;;;;;;6.7;5.2;;;;;;;8.13;65.04785;943.6049;;;;
2020/04/09 02:43:42;;;;;;;7.3;5.4;;;;;;;8.06;65.58203;943.611;;;;
2020/04/09 02:46:08;;;;;;;8;5.9;;;;;;;8.05;65.61426;943.697;;;;
2020/04/09 02:48:33;;;;;;;7.2;5.9;;;;;;;8.04;66.12207;943.673;;;;
2020/04/09 02:50:58;;;;;;;11.8;6;;;;;;;8.03;66.14355;943.6203;;;;
2020/04/09 02:53:23;;;;;;;10.8;5.9;;;;;;;7.95;66.50684;943.6886;;;;
2020/04/09 02:55:48;;;;;;;7.9;5.8;;;;;;;7.99;66.24023;943.704;;;;
2020/04/09 02:58:13;;;;;;;6.4;5.6;;;;;;;7.92;66.54688;943.6702;;;;
2020/04/09 03:00:39;;;;;;;7.1;5.3;;;;;;;7.84;66.93164;943.7639;;;;
2020/04/09 03:03:04;;;;;;;7.7;5.5;;;;;;;7.78;67.10449;943.7897;;;;
2020/04/09 03:05:29;;;;;;;8.8;6.3;;;;;;;7.66;67.61816;943.7512;;;;
2020/04/09 03:07:54;;;;;;;7.3;6.1;;;;;;;7.7;67.55664;943.7921;;;;
2020/04/09 03:10:20;;;;;;;9.6;6.6;;;;;;;7.8;67.73242;943.788;;;;
2020/04/09 03:13:41;;;;;;;10.3;6.8;;;;;;;7.78;67.75098;943.7983;;;;
2020/04/09 03:16:15;;;;;;;11.9;6;;;;;;;7.76;67.44238;943.744;;;;
2020/04/09 03:18:39;;;;;;;10.1;6.6;;;;;;;7.84;67.2959;943.7996;;;;
2020/04/09 03:23:41;;;;;;;9.1;6.4;;;;;;;8.04;66.2832;943.7937;;;;
2020/04/09 03:25:54;;;;;;;8.2;6.1;;;;;;;7.98;66.11523;943.848;;;;
2020/04/09 03:28:24;;;;;;;9;6.3;;;;;;;7.98;66.11426;943.813;;;;
2020/04/09 03:30:50;;;;;;;9.3;6.5;;;;;;;7.74;66.84961;943.8045;;;;
2020/04/09 03:40:36;;;;;;;8.5;6.5;;;;;;;7.65;67.30078;943.7954;;;;
2020/04/09 03:43:01;;;;;;;9.3;6.8;;;;;;;7.71;67.04785;943.8162;;;;
2020/04/09 03:45:18;;;;;;;8.9;6.8;;;;;;;7.63;67.39844;943.7908;;;;
2020/04/09 03:47:46;;;;;;;10;6.5;;;;;;;7.66;67.25684;943.8307;;;;
2020/04/09 03:50:23;;;;;;;12.1;7.8;;;;;;;7.64;67.34277;943.8141;;;;
2020/04/09 03:52:24;;;;;;;10;7.2;;;;;;;7.6;67.38379;943.8326;;;;
2020/04/09 03:54:49;;;;;;;9;6.8;;;;;;;7.47;67.98633;943.7383;;;;
2020/04/09 03:57:14;;;;;;;12.7;7.1;;;;;;;7.5;67.75293;943.7853;;;;
2020/04/09 03:59:39;;;;;;;14.3;7.7;;;;;;;7.54;67.56543;943.7997;;;;
2020/04/09 04:02:30;;;;;;;9.8;7.3;;;;;;;7.52;67.51758;943.8276;;;;
2020/04/09 04:04:55;;;;;;;10;6.8;;;;;;;7.56;67.37695;943.8163;;;;
2020/04/09 04:07:20;;;;;;;8.9;7;;;;;;;7.58;67.2207;943.8677;;;;
2020/04/09 04:09:45;;;;;;;16.5;7.6;;;;;;;7.48;67.69336;943.8806;;;;
2020/04/09 04:12:10;;;;;;;14.9;7.2;;;;;;;7.41;67.99902;943.8586;;;;
2020/04/09 04:14:35;;;;;;;9.5;6.9;;;;;;;7.41;67.87402;943.8989;;;;
2020/04/09 04:17:00;;;;;;;22;8.6;;;;;;;7.32;68.33594;943.8887;;;;
2020/04/09 04:19:25;;;;;;;10.1;7.2;;;;;;;7.17;68.87988;943.9504;;;;
2020/04/09 04:21:50;;;;;;;11.5;7.1;;;;;;;7.19;68.90527;943.9575;;;;
2020/04/09 04:24:15;;;;;;;10.5;7.2;;;;;;;7.22;68.75098;943.9348;;;;
2020/04/09 04:26:41;;;;;;;14.1;7.3;;;;;;;7.16;68.95703;943.8314;;;;
2020/04/09 04:29:06;;;;;;;14.2;7.5;;;;;;;7.11;69.1748;943.9556;;;;
2020/04/09 04:31:31;;;;;;;34.8;10.1;;;;;;;7.16;69.10352;943.9548;;;;
2020/04/09 04:33:57;;;;;;;12;7.1;;;;;;;7.23;68.66016;943.9358;;;;
2020/04/09 04:36:23;;;;;;;13.1;7.3;;;;;;;7.24;68.51758;943.9261;;;;
2020/04/09 04:38:48;;;;;;;10.4;6.8;;;;;;;7.22;68.6377;943.9498;;;;
2020/04/09 04:41:14;;;;;;;14.4;7.2;;;;;;;7.23;68.66113;943.9874;;;;
2020/04/09 04:43:39;;;;;;;10.2;6.2;;;;;;;7.27;68.36328;943.9952;;;;
2020/04/09 04:46:05;;;;;;;8.8;6.3;;;;;;;7.29;68.17285;943.9877;;;;
2020/04/09 04:48:31;;;;;;;9.1;6.1;;;;;;;7.32;68.1543;943.9269;;;;
2020/04/09 04:50:57;;;;;;;17.2;7.7;;;;;;;7.26;68.47363;943.997;;;;
2020/04/09 04:53:22;;;;;;;15.8;7.2;;;;;;;7.21;68.9082;943.9766;;;;
2020/04/09 04:55:47;;;;;;;21.3;7.9;;;;;;;7.27;68.87305;943.9967;;;;
2020/04/09 04:58:13;;;;;;;19.5;8.1;;;;;;;7.31;68.85547;944.005;;;;
2020/04/09 05:00:38;;;;;;;14.2;7.9;;;;;;;7.45;68.13086;944.0562;;;;
2020/04/09 05:03:03;;;;;;;19.2;8.8;;;;;;;7.56;67.66992;944.008;;;;
2020/04/09 05:05:28;;;;;;;11.5;7.3;;;;;;;7.46;67.92773;944.0939;;;;
2020/04/09 05:07:53;;;;;;;13.5;7.6;;;;;;;7.21;69.16699;944.1202;;;;
2020/04/09 05:10:18;;;;;;;21.9;9.4;;;;;;;7.28;68.97656;944.0865;;;;
2020/04/09 05:12:43;;;;;;;18.2;9.3;;;;;;;7.5;68.21777;944.103;;;;
2020/04/09 05:15:09;;;;;;;24.9;9.6;;;;;;;7.73;67.19922;944.1639;;;;
2020/04/09 05:17:34;;;;;;;25.5;9.8;;;;;;;7.85;67.11621;944.2065;;;;
2020/04/09 05:20:00;;;;;;;22;8.8;;;;;;;8.07;66.31152;944.2236;;;;
2020/04/09 05:22:25;;;;;;;17.3;8.3;;;;;;;8.16;65.68945;944.2603;;;;
2020/04/09 05:24:50;;;;;;;15.6;8.1;;;;;;;8.31;65.41699;944.2719;;;;
2020/04/09 05:27:17;;;;;;;22.7;9.1;;;;;;;8.51;64.60547;944.2826;;;;
2020/04/09 05:29:42;;;;;;;16.7;8.5;;;;;;;8.58;64.37695;944.3273;;;;
2020/04/09 05:32:08;;;;;;;19.8;8.6;;;;;;;8.7;64.49707;944.3592;;;;
2020/04/09 05:34:33;;;;;;;17.8;8.8;;;;;;;8.85;63.67871;944.4135;;;;
2020/04/09 05:37:00;;;;;;;21.1;9.5;;;;;;;8.98;62.99219;944.4057;;;;
2020/04/09 05:39:25;;;;;;;25.3;9.9;;;;;;;9.08;63.01758;944.4855;;;;
2020/04/09 05:41:50;;;;;;;16.6;8;;;;;;;9.17;62.46191;944.4385;;;;
2020/04/09 05:44:16;;;;;;;19;8.5;;;;;;;9.29;62.19434;944.4711;;;;
2020/04/09 05:46:41;;;;;;;20.2;8.8;;;;;;;9.45;61.74023;944.4769;;;;
2020/04/09 05:49:06;;;;;;;16.8;9.2;;;;;;;9.58;61.64453;944.4377;;;;
2020/04/09 05:51:31;;;;;;;20;9.1;;;;;;;9.73;61.64258;944.473;;;;
2020/04/09 05:54:00;;;;;;;22;8;;;;;;;9.77;61.36328;944.5217;;;;
2020/04/09 05:56:25;;;;;;;16.2;8.3;;;;;;;9.83;61.48438;944.5305;;;;
2020/04/09 05:58:51;;;;;;;23.6;8.3;;;;;;;9.98;61.29102;944.5553;;;;
2020/04/09 06:01:15;;;;;;;21.2;8.3;;;;;;;10.1;60.87402;944.4881;;;;
2020/04/09 06:03:42;;;;;;;21.6;7.8;;;;;;;10.32;60.3457;944.5162;;;;
2020/04/09 06:06:07;;;;;;;18.4;7.5;;;;;;;10.64;59.63574;944.5215;;;;
2020/04/09 06:08:32;;;;;;;13.8;6.7;;;;;;;10.76;57.72266;944.4473;;;;
2020/04/09 06:11:00;;;;;;;15.2;6.9;;;;;;;10.73;57.95801;944.528;;;;
2020/04/09 06:13:25;;;;;;;17.7;7;;;;;;;10.67;58.43066;944.5485;;;;
2020/04/09 06:15:50;;;;;;;15.4;6.3;;;;;;;10.75;57.7666;944.5363;;;;
2020/04/09 06:18:17;;;;;;;14.9;6.8;;;;;;;10.89;57.58008;944.5217;;;;
2020/04/09 06:21:19;;;;;;;14.9;6.4;;;;;;;11.13;56.75488;944.4609;;;;
2020/04/09 06:23:15;;;;;;;10.4;6.5;;;;;;;11.36;55.99512;944.5264;;;;
2020/04/09 06:26:07;;;;;;;14.4;6.2;;;;;;;11.98;54.24219;944.525;;;;
2020/04/09 06:32:59;;;;;;;15.3;5.6;;;;;;;16.73;41.98145;944.4917;;;;
2020/04/09 06:35:30;;;;;;;8.9;4.9;;;;;;;17.19;39.70703;944.469;;;;
2020/04/09 06:40:24;;;;;;;11;5.5;;;;;;;15.56;43.08301;944.4796;;;;
2020/04/09 06:43:22;;;;;;;12.4;5.7;;;;;;;14.69;45.74023;944.5153;;;;
2020/04/09 06:45:00;;;;;;;8.8;5.9;;;;;;;14.41;46.75879;944.51;;;;
2020/04/09 06:47:25;;;;;;;14.4;6.2;;;;;;;14.24;47.53613;944.5436;;;;
2020/04/09 06:49:50;;;;;;;16.4;6.8;;;;;;;14.07;49.29004;944.5736;;;;
2020/04/09 06:52:16;;;;;;;21.4;7.4;;;;;;;13.98;48.76172;944.5815;;;;
2020/04/09 06:54:43;;;;;;;18.9;7.3;;;;;;;14.02;49.15723;944.5876;;;;
2020/04/09 06:57:21;;;;;;;18.6;7.1;;;;;;;14.09;48.85449;944.5584;;;;
2020/04/09 06:59:46;;;;;;;17.3;6.9;;;;;;;14.29;49.37207;944.6119;;;;
2020/04/09 07:02:11;;;;;;;11.7;6.2;;;;;;;14.75;45.40039;944.5748;;;;
2020/04/09 07:04:36;;;;;;;16;5.7;;;;;;;15.86;42.16406;944.5278;;;;
2020/04/09 07:07:01;;;;;;;13.7;6;;;;;;;16.93;40.40137;944.5547;;;;
2020/04/09 07:09:26;;;;;;;11.9;5.3;;;;;;;17.54;38.16016;944.522;;;;
2020/04/09 07:11:51;;;;;;;10.3;5.4;;;;;;;18.46;36.48438;944.5259;;;;
2020/04/09 07:14:16;;;;;;;13;4.9;;;;;;;18.13;36.01563;944.4335;;;;
2020/04/09 07:16:42;;;;;;;11.5;5;;;;;;;18.54;35.36328;944.4911;;;;
2020/04/09 07:19:07;;;;;;;10.9;4.8;;;;;;;18.47;36.04395;944.375;;;;
2020/04/09 07:21:34;;;;;;;15.8;5.3;;;;;;;19.93;33.21191;944.4341;;;;
2020/04/09 07:23:59;;;;;;;11.9;5.1;;;;;;;20.98;31.32617;944.4227;;;;
2020/04/09 07:26:24;;;;;;;9.3;4.7;;;;;;;20.8;31.19629;944.3571;;;;
2020/04/09 07:28:49;;;;;;;7.5;4.7;;;;;;;21.91;31.18164;944.4509;;;;
2020/04/09 07:31:14;;;;;;;9;4.5;;;;;;;23.17;29.50684;944.3895;;;;
2020/04/09 07:33:39;;;;;;;7.7;4.3;;;;;;;24.52;26.8623;944.4203;;;;
2020/04/09 07:36:04;;;;;;;8.6;4.2;;;;;;;23.6;27.98242;944.4196;;;;
2020/04/09 07:38:33;;;;;;;6;4.2;;;;;;;23.44;28.64258;944.4039;;;;
2020/04/09 07:40:58;;;;;;;7.7;3.8;;;;;;;24.17;26.9707;944.4199;;;;
2020/04/09 07:43:23;;;;;;;5.9;4;;;;;;;23.22;27.8418;944.375;;;;
2020/04/09 07:45:48;;;;;;;6.4;4;;;;;;;23.47;28.51563;944.3801;;;;
2020/04/09 07:48:14;;;;;;;6.2;3.8;;;;;;;24.26;26.62207;944.4189;;;;
2020/04/09 07:50:39;;;;;;;9.1;4.4;;;;;;;24.88;24.90234;944.4047;;;;
2020/04/09 07:53:04;;;;;;;6.3;4.2;;;;;;;25.09;25.12598;944.4149;;;;
2020/04/09 07:55:29;;;;;;;8.1;4.1;;;;;;;26.16;24.24023;944.502;;;;
2020/04/09 07:57:54;;;;;;;5.9;3.8;;;;;;;27.25;23.23145;944.481;;;;
2020/04/09 08:00:19;;;;;;;7;3.9;;;;;;;27.85;22.68066;944.4608;;;;
2020/04/09 08:02:45;;;;;;;5.8;3.8;;;;;;;28.13;22.61133;944.4868;;;;
2020/04/09 08:05:09;;;;;;;6.3;3.9;;;;;;;27.91;20.72363;944.543;;;;
2020/04/09 08:08:24;;;;;;;7.4;4;;;;;;;26.12;23.69336;944.5568;;;;
2020/04/09 08:10:53;;;;;;;7.7;4.3;;;;;;;26.99;23.0752;944.5605;;;;
2020/04/09 08:13:18;;;;;;;6.2;4.3;;;;;;;26.46;23.88867;944.5363;;;;
2020/04/09 08:15:44;;;;;;;5.8;3.8;;;;;;;25.68;24.5918;944.6049;;;;
2020/04/09 08:18:08;;;;;;;7.1;4.2;;;;;;;24.67;29.27637;944.5294;;;;
2020/04/09 08:20:33;;;;;;;6.6;4.2;;;;;;;24.83;28.17773;944.5899;;;;
2020/04/09 08:22:58;;;;;;;8.9;4.3;;;;;;;23.65;29.68066;944.5916;;;;
2020/04/09 08:25:23;;;;;;;16.4;5.2;;;;;;;22.87;31.1084;944.5772;;;;
2020/04/09 08:27:49;;;;;;;23.1;6.1;;;;;;;22.51;31.79785;944.5554;;;;
2020/04/09 08:30:14;;;;;;;22.2;5.7;;;;;;;22.78;31.38281;944.537;;;;
2020/04/09 08:32:39;;;;;;;16.2;5.9;;;;;;;22.63;31.9834;944.6409;;;;
2020/04/09 08:35:05;;;;;;;11.1;5.2;;;;;;;22.89;31.40234;944.5923;;;;
2020/04/09 08:37:31;;;;;;;14.4;5.5;;;;;;;23.62;30.53613;944.5945;;;;
2020/04/09 08:39:56;;;;;;;13.3;5.3;;;;;;;24.69;29.37207;944.5416;;;;
2020/04/09 08:42:21;;;;;;;12.5;4.9;;;;;;;25.81;27.31836;944.5419;;;;
2020/04/09 08:44:46;;;;;;;8.7;4.6;;;;;;;26.4;27.78027;944.5663;;;;
2020/04/09 08:47:11;;;;;;;10.3;4.7;;;;;;;27.61;26.05078;944.5581;;;;
2020/04/09 08:49:36;;;;;;;9.4;5.1;;;;;;;28.07;25.55469;944.6156;;;;
2020/04/09 08:52:01;;;;;;;9.1;4.8;;;;;;;28.65;22.95898;944.5323;;;;
2020/04/09 08:54:26;;;;;;;14.9;5.6;;;;;;;29.19;23.39063;944.5563;;;;
2020/04/09 08:56:51;;;;;;;9.9;4.6;;;;;;;29.21;22.34375;944.5411;;;;
2020/04/09 08:59:16;;;;;;;9.7;4.5;;;;;;;29.3;23.32617;944.4839;;;;
2020/04/09 09:01:41;;;;;;;10.1;4.2;;;;;;;29.84;22.21973;944.5223;;;;
2020/04/09 09:04:07;;;;;;;9.9;4.2;;;;;;;29.69;21.33008;944.517;;;;
2020/04/09 09:06:32;;;;;;;13.3;4.5;;;;;;;30.02;21.32227;944.5488;;;;
2020/04/09 09:08:58;;;;;;;9.8;5;;;;;;;30.69;18.55762;944.5131;;;;
2020/04/09 09:11:23;;;;;;;7.5;5;;;;;;;29.79;19.83301;944.4677;;;;
2020/04/09 09:13:48;;;;;;;6.2;4.5;;;;;;;29.53;20.14258;944.5059;;;;
2020/04/09 09:16:13;;;;;;;7.5;4.8;;;;;;;29.84;19.73926;944.4777;;;;
2020/04/09 09:18:38;;;;;;;7.6;5.1;;;;;;;29.26;20.51172;944.5272;;;;
2020/04/09 09:21:04;;;;;;;8.4;5.6;;;;;;;29.72;20.49707;944.4274;;;;
2020/04/09 09:23:29;;;;;;;8.8;5.8;;;;;;;28.88;20.78027;944.4352;;;;
2020/04/09 09:25:54;;;;;;;8.1;5.7;;;;;;;29.72;20.9502;944.4621;;;;
2020/04/09 09:28:20;;;;;;;10.4;7.3;;;;;;;30.31;19.3418;944.4575;;;;
2020/04/09 09:30:45;;;;;;;12.7;8.5;;;;;;;29.45;20.66406;944.4139;;;;
2020/04/09 09:33:16;;;;;;;12.8;8.8;;;;;;;30.13;19.91895;944.4395;;;;
2020/04/09 09:35:40;;;;;;;12.2;8.1;;;;;;;30.05;20.18945;944.3876;;;;
2020/04/09 09:43:00;;;;;;;12.2;8.5;;;;;;;30.53;19.7334;944.385;;;;
2020/04/09 09:45:38;;;;;;;13.6;8.8;;;;;;;30.66;19.5957;944.3717;;;;
2020/04/09 09:47:50;;;;;;;10.7;8.5;;;;;;;30.5;19.55371;944.3522;;;;
2020/04/09 09:50:52;;;;;;;16.4;10;;;;;;;29.91;20.19531;944.308;;;;
2020/04/09 09:52:36;;;;;;;13.3;9.2;;;;;;;30.16;20.15918;944.2745;;;;
2020/04/09 09:55:11;;;;;;;13.3;9.8;;;;;;;30.2;19.99414;944.2303;;;;
2020/04/09 09:57:43;;;;;;;16.4;10.5;;;;;;;30.6;19.56934;944.2242;;;;
2020/04/09 10:00:24;;;;;;;15.7;11.7;;;;;;;30.7;18.77344;944.2056;;;;
2020/04/09 10:05:20;;;;;;;14.4;10.1;;;;;;;30.16;20.44531;944.2202;;;;
2020/04/09 10:07:41;;;;;;;13;9.4;;;;;;;30.39;19.73926;944.1365;;;;
2020/04/09 10:09:39;;;;;;;13.9;9;;;;;;;30.39;20.38477;944.0517;;;;
2020/04/09 10:13:29;;;;;;;18.6;11.7;;;;;;;29.4;20.95996;944.0379;;;;
2020/04/09 10:16:14;;;;;;;16.2;11.8;;;;;;;29.38;21.60156;944.058;;;;
2020/04/09 10:18:19;;;;;;;17.9;12.8;;;;;;;28.98;21.1416;944.0463;;;;
2020/04/09 10:28:00;;;;;;;19.1;12.9;;;;;;;30.04;20.33301;944.0129;;;;
2020/04/09 10:30:24;;;;;;;25.2;15.4;;;;;;;29.29;20.81152;943.9075;;;;
2020/04/09 10:32:47;;;;;;;22.2;16.4;;;;;;;28.93;21.52051;943.9299;;;;
2020/04/09 10:35:20;;;;;;;18.9;14.9;;;;;;;28.71;22.4502;943.916;;;;
2020/04/09 10:41:28;;;;;;;16.9;13.5;;;;;;;29.27;21.8584;943.8098;;;;
2020/04/09 10:43:47;;;;;;;18.7;14.1;;;;;;;29.49;21.30859;943.8423;;;;
2020/04/09 10:46:12;;;;;;;19.4;13.9;;;;;;;28.74;22.01172;943.7907;;;;
2020/04/09 10:48:37;;;;;;;18;13.6;;;;;;;27.73;22.92383;943.7484;;;;
2020/04/09 10:51:02;;;;;;;20;14.1;;;;;;;27.77;22.83105;943.6973;;;;
2020/04/09 10:53:28;;;;;;;21.4;14.7;;;;;;;27.6;22.73926;943.6281;;;;
2020/04/09 10:55:53;;;;;;;19.2;14.1;;;;;;;26.08;25.03906;943.6516;;;;
2020/04/09 10:58:18;;;;;;;21.8;14.5;;;;;;;25;25.80566;943.6494;;;;
2020/04/09 11:00:43;;;;;;;20.4;14.1;;;;;;;24.68;26.86035;943.6443;;;;
2020/04/09 11:03:08;;;;;;;19.9;13.5;;;;;;;24.36;26.6875;943.5869;;;;
2020/04/09 11:05:33;;;;;;;20.1;13.6;;;;;;;24;28.20801;943.6281;;;;
2020/04/09 11:07:58;;;;;;;16.9;12.9;;;;;;;23.91;29.26172;943.5706;;;;
2020/04/09 11:10:24;;;;;;;20.3;14.1;;;;;;;24.65;26.00879;943.6113;;;;
2020/04/09 11:12:52;;;;;;;21.8;13.8;;;;;;;24.77;25.43848;943.5614;;;;
2020/04/09 11:15:15;;;;;;;19.4;13.2;;;;;;;24.98;26.59473;943.5919;;;;
2020/04/09 11:17:43;;;;;;;19.8;13;;;;;;;24.82;26.71484;943.6147;;;;
2020/04/09 11:20:08;;;;;;;18;12.8;;;;;;;25.68;24.32031;943.6184;;;;
2020/04/09 11:22:36;;;;;;;18.8;12.5;;;;;;;26.26;23.83105;943.6318;;;;
2020/04/09 11:25:01;;;;;;;18.5;12.5;;;;;;;26.76;25.72949;943.5575;;;;
2020/04/09 11:27:26;;;;;;;16.5;11.8;;;;;;;27.36;23.13086;943.5925;;;;
2020/04/09 11:29:51;;;;;;;19;12.2;;;;;;;27.97;22.13965;943.538;;;;
2020/04/09 11:32:16;;;;;;;17.4;11.9;;;;;;;27.71;22.56738;943.5396;;;;
2020/04/09 11:34:42;;;;;;;20.5;12;;;;;;;27.11;23.46094;943.5244;;;;
2020/04/09 11:37:10;;;;;;;15.3;10.7;;;;;;;27.61;23.07227;943.5539;;;;
2020/04/09 11:39:33;;;;;;;15.4;10.5;;;;;;;29.31;20.07422;943.5273;;;;
2020/04/09 11:41:58;;;;;;;12.8;10;;;;;;;30.82;18.49121;943.5056;;;;
2020/04/09 11:44:23;;;;;;;17;9.6;;;;;;;31.15;18.67285;943.4914;;;;
2020/04/09 11:46:48;;;;;;;11.6;9.6;;;;;;;31.03;18.04492;943.4881;;;;
2020/04/09 11:49:16;;;;;;;14.6;9.3;;;;;;;31.26;17.95898;943.4349;;;;
2020/04/09 11:51:39;;;;;;;16.7;9.3;;;;;;;31.11;17.92871;943.4525;;;;
2020/04/09 11:54:12;;;;;;;12.1;9.2;;;;;;;30.45;19.56348;943.4641;;;;
2020/04/09 11:56:29;;;;;;;12.9;8.9;;;;;;;29.71;18.60059;943.4305;;;;
2020/04/09 11:58:54;;;;;;;13.6;8.8;;;;;;;29.63;19.62305;943.3994;;;;
2020/04/09 12:01:22;;;;;;;11.4;8.3;;;;;;;30.09;19.7627;943.3215;;;;
2020/04/09 12:03:52;;;;;;;11.9;8.6;;;;;;;29.07;19.5625;943.2789;;;;
2020/04/09 12:06:09;;;;;;;14.5;9;;;;;;;28.68;20.14063;943.2775;;;;
2020/04/09 12:08:35;;;;;;;11.4;8.8;;;;;;;30.25;18.4082;943.3224;;;;
2020/04/09 12:10:59;;;;;;;13.2;8.2;;;;;;;31.1;18.51465;943.3434;;;;
2020/04/09 12:13:27;;;;;;;13.2;8.5;;;;;;;31;19.09668;943.2985;;;;
2020/04/09 12:16:01;;;;;;;12.2;8.4;;;;;;;30.46;18.91895;943.3353;;;;
2020/04/09 12:18:24;;;;;;;15.2;8.4;;;;;;;30.5;19.08789;943.2967;;;;
2020/04/09 12:20:43;;;;;;;12;8.1;;;;;;;30.37;19.71484;943.2626;;;;
2020/04/09 12:23:14;;;;;;;9.7;7.9;;;;;;;30.47;19.13379;943.2841;;;;
2020/04/09 12:27:59;;;;;;;10.3;7.9;;;;;;;29.68;20.11426;943.2086;;;;
2020/04/09 12:30:26;;;;;;;13.7;8.1;;;;;;;30.36;19.90527;943.1596;;;;
2020/04/09 12:33:21;;;;;;;14.2;7.8;;;;;;;30.01;20.31934;943.1096;;;;
2020/04/09 12:36:19;;;;;;;9.9;7.9;;;;;;;28.45;21.67578;943.1149;;;;
2020/04/09 12:37:58;;;;;;;13.3;7.9;;;;;;;28.45;21.17676;943.0673;;;;
2020/04/09 12:40:03;;;;;;;14.9;7.9;;;;;;;29.05;20.09766;943.1347;;;;
2020/04/09 12:42:28;;;;;;;14;8.1;;;;;;;28.02;22.01172;943.0917;;;;
2020/04/09 12:44:53;;;;;;;9.5;7.7;;;;;;;27.69;22.56641;943.0609;;;;
2020/04/09 12:47:19;;;;;;;11;7.5;;;;;;;27.98;21.08301;943.0076;;;;
2020/04/09 12:49:44;;;;;;;9.4;7.4;;;;;;;27.55;22.23828;942.9947;;;;
2020/04/09 12:52:10;;;;;;;15;7.8;;;;;;;27.2;21.56836;943.0225;;;;
2020/04/09 12:54:35;;;;;;;12.1;7.1;;;;;;;28.34;19.61426;942.9431;;;;
2020/04/09 12:57:03;;;;;;;9.9;7.6;;;;;;;27.73;20.09766;942.8588;;;;
2020/04/09 12:59:28;;;;;;;12.3;7.3;;;;;;;26.67;21.82715;942.8361;;;;
2020/04/09 13:01:55;;;;;;;9.5;6.9;;;;;;;26.94;22.00684;942.7814;;;;
2020/04/09 13:04:18;;;;;;;11.2;7.2;;;;;;;27.39;21.54199;942.8211;;;;
2020/04/09 13:06:43;;;;;;;10.7;7.6;;;;;;;26.66;22.06348;942.8912;;;;
2020/04/09 13:09:10;;;;;;;8.9;6.8;;;;;;;27;22.74414;942.8633;;;;
2020/04/09 13:11:35;;;;;;;9.5;6.7;;;;;;;27.72;22.08008;942.8577;;;;
2020/04/09 13:14:00;;;;;;;12.1;7.2;;;;;;;28.05;19.92285;942.8281;;;;
2020/04/09 13:16:25;;;;;;;8.6;6.8;;;;;;;28.94;18.48633;942.759;;;;
2020/04/09 13:18:50;;;;;;;11;6.5;;;;;;;27.9;21.50684;942.7819;;;;
2020/04/09 13:21:15;;;;;;;11.2;6.7;;;;;;;27.48;21.28516;942.7321;;;;
2020/04/09 13:23:40;;;;;;;10.6;6.6;;;;;;;27.24;22.45996;942.7142;;;;
2020/04/09 13:26:05;;;;;;;11.9;7;;;;;;;26.68;23;942.6904;;;;
2020/04/09 13:28:30;;;;;;;13.3;7.6;;;;;;;25.64;23.05371;942.7381;;;;
2020/04/09 13:30:55;;;;;;;12;7.1;;;;;;;24.96;23.57324;942.7581;;;;
2020/04/09 13:33:21;;;;;;;11.6;7.2;;;;;;;25.04;24.43848;942.6067;;;;
2020/04/09 13:35:46;;;;;;;9.3;7.4;;;;;;;24.88;23.875;942.7053;;;;
2020/04/09 13:38:12;;;;;;;10.1;6.9;;;;;;;25.18;23.59668;942.6998;;;;
2020/04/09 13:40:37;;;;;;;10.9;6.7;;;;;;;25.62;23.56055;942.6717;;;;
2020/04/09 13:43:02;;;;;;;9.5;6.5;;;;;;;25.46;24.72168;942.6564;;;;
2020/04/09 13:45:29;;;;;;;10.6;6.6;;;;;;;25.32;24.00488;942.6111;;;;
2020/04/09 13:47:53;;;;;;;15.2;6.5;;;;;;;24.84;24.63965;942.5927;;;;
2020/04/09 13:50:17;;;;;;;11.1;7.1;;;;;;;24.5;24.20801;942.5654;;;;
2020/04/09 13:52:42;;;;;;;10.6;6.8;;;;;;;24.33;25.45996;942.5918;;;;
2020/04/09 13:55:08;;;;;;;12.1;7.3;;;;;;;23.93;25.99023;942.5556;;;;
2020/04/09 13:57:33;;;;;;;10.2;6.6;;;;;;;24.14;25.13086;942.5623;;;;
2020/04/09 13:59:58;;;;;;;9.9;6.8;;;;;;;24.13;25.9668;942.5008;;;;
2020/04/09 14:02:23;;;;;;;10.6;6.8;;;;;;;23.82;25.76074;942.5696;;;;
2020/04/09 14:04:49;;;;;;;8.9;6.5;;;;;;;23.81;26.61914;942.5546;;;;
2020/04/09 14:07:14;;;;;;;9.2;6.3;;;;;;;23.96;26.05176;942.5025;;;;
2020/04/09 14:09:39;;;;;;;9.3;6.5;;;;;;;23.72;26.01367;942.4716;;;;
2020/04/09 14:12:04;;;;;;;9;6.5;;;;;;;23.55;26.55664;942.4174;;;;
2020/04/09 14:14:29;;;;;;;10.3;6.8;;;;;;;23.35;26.27441;942.5196;;;;
2020/04/09 14:16:54;;;;;;;10.7;6.6;;;;;;;23.11;27.34082;942.486;;;;
2020/04/09 14:19:19;;;;;;;15.7;7.1;;;;;;;22.68;27.45605;942.5261;;;;
2020/04/09 14:21:44;;;;;;;11.1;6.9;;;;;;;22.55;27.15332;942.4739;;;;
2020/04/09 14:24:10;;;;;;;7.5;6.4;;;;;;;22.38;27.91797;942.4622;;;;
2020/04/09 14:26:35;;;;;;;9.7;6.6;;;;;;;22.5;28.68848;942.4364;;;;
2020/04/09 14:29:00;;;;;;;12.2;6.7;;;;;;;22.58;27.64844;942.4437;;;;
2020/04/09 14:31:25;;;;;;;8.8;6.3;;;;;;;22.77;27.55469;942.3641;;;;
2020/04/09 14:33:51;;;;;;;9.1;6.1;;;;;;;22.74;28.57422;942.3911;;;;
2020/04/09 14:36:17;;;;;;;8.3;6.5;;;;;;;22.81;26.86426;942.3801;;;;
2020/04/09 14:38:41;;;;;;;11.5;7;;;;;;;22.63;26.06738;942.3173;;;;
2020/04/09 14:41:06;;;;;;;9.4;6.4;;;;;;;22.22;26.98145;942.3694;;;;
2020/04/09 14:43:31;;;;;;;11.2;6.2;;;;;;;22.16;28.43164;942.3766;;;;
2020/04/09 14:45:56;;;;;;;12.6;6.7;;;;;;;22.17;27.99902;942.3237;;;;
2020/04/09 14:48:21;;;;;;;10.2;6.2;;;;;;;22.36;27.96387;942.3005;;;;
2020/04/09 14:50:47;;;;;;;9.3;6.2;;;;;;;22.35;27.03613;942.3203;;;;